createdAt,value
2023-03-02T00:01:37.796Z,73.25
2023-03-02T00:06:41.955Z,72.00
2023-03-02T00:11:45.546Z,72.25
2023-03-02T00:16:48.371Z,73.00
2023-03-02T00:21:52.515Z,71.00
2023-03-02T00:26:55.279Z,74.25
2023-03-02T00:31:58.075Z,75.75
2023-03-02T00:37:02.232Z,73.50
2023-03-02T00:42:05.160Z,71.50
2023-03-02T00:47:08.020Z,70.25
2023-03-02T00:52:12.339Z,71.00
2023-03-02T00:57:15.128Z,70.25
2023-03-02T01:02:18.297Z,68.50
2023-03-02T01:07:24.875Z,69.50
2023-03-02T01:12:27.679Z,69.75
2023-03-02T01:17:30.687Z,69.75
2023-03-02T01:22:34.779Z,69.25
2023-03-02T01:27:37.553Z,69.00
2023-03-02T01:32:40.377Z,66.50
2023-03-02T01:37:44.514Z,66.00
2023-03-02T01:42:51.766Z,64.75
2023-03-02T01:47:54.527Z,65.25
2023-03-02T01:52:58.682Z,68.25
2023-03-02T01:58:01.623Z,65.25
2023-03-02T02:03:09.651Z,63.25
2023-03-02T02:08:13.783Z,63.50
2023-03-02T02:13:16.596Z,65.50
2023-03-02T02:18:19.646Z,64.00
2023-03-02T02:23:28.731Z,64.25
2023-03-02T02:28:34.587Z,62.75
2023-03-02T02:33:37.443Z,60.00
2023-03-02T02:38:40.372Z,63.75
2023-03-02T02:43:45.426Z,56.75
2023-03-02T02:48:48.321Z,60.00
2023-03-02T02:53:58.938Z,61.25
2023-03-02T02:59:07.914Z,60.00
2023-03-02T03:04:11.535Z,59.00
2023-03-02T03:09:14.449Z,61.00
2023-03-02T03:14:23.167Z,55.33
2023-03-02T03:19:29.242Z,61.00
2023-03-02T03:24:34.399Z,57.00
2023-03-02T03:29:41.280Z,56.00
2023-03-02T03:34:46.272Z,57.67
2023-03-02T03:39:58.263Z,59.33
2023-03-02T03:45:02.998Z,56.33
2023-03-02T03:50:10.555Z,56.67
2023-03-02T03:55:14.068Z,55.00
2023-03-02T04:00:21.460Z,54.67
2023-03-02T04:05:39.453Z,53.67
2023-03-02T04:10:42.466Z,55.33
2023-03-02T04:15:47.722Z,54.00
2023-03-02T04:20:51.233Z,54.67
2023-03-02T04:25:54.193Z,52.33
2023-03-02T04:30:59.834Z,51.33
2023-03-02T04:36:03.172Z,52.00
2023-03-02T04:41:07.066Z,51.00
2023-03-02T04:46:12.675Z,54.33
2023-03-02T04:51:18.012Z,53.00
2023-03-02T04:56:20.881Z,49.33
2023-03-02T05:01:25.625Z,48.00
2023-03-02T05:06:28.735Z,48.00
2023-03-02T05:11:31.537Z,49.00
2023-03-02T05:16:37.116Z,47.00
2023-03-02T05:21:40.221Z,49.00
2023-03-02T05:26:43.016Z,45.75
2023-03-02T05:31:47.291Z,48.75
2023-03-02T05:36:50.107Z,46.50
2023-03-02T05:41:53.371Z,47.25
2023-03-02T05:46:57.718Z,47.67
2023-03-02T05:52:00.503Z,44.25
2023-03-02T05:57:03.320Z,45.75
2023-03-02T06:02:07.532Z,44.25
2023-03-02T06:07:11.077Z,44.25
2023-03-02T06:12:14.024Z,44.75
2023-03-02T06:17:18.352Z,43.50
2023-03-02T06:22:21.170Z,46.75
2023-03-02T06:27:23.962Z,43.50
2023-03-02T06:32:33.872Z,42.50
2023-03-02T06:37:36.705Z,42.75
2023-03-02T06:42:39.773Z,42.50
2023-03-02T06:47:43.983Z,44.00
2023-03-02T06:52:46.854Z,42.75
2023-03-02T06:57:49.679Z,42.00
2023-03-02T07:02:55.276Z,42.00
2023-03-02T07:07:58.283Z,41.00
2023-03-02T07:13:01.131Z,42.00
2023-03-02T07:18:05.577Z,44.00
2023-03-02T07:23:08.605Z,40.75
2023-03-02T07:28:11.748Z,37.25
2023-03-02T07:33:16.113Z,40.25
2023-03-02T07:38:18.961Z,37.25
2023-03-02T07:43:23.989Z,34.25
2023-03-02T07:48:28.232Z,37.20
2023-03-02T07:53:31.104Z,38.75
2023-03-02T07:58:35.304Z,50.00
2023-03-02T08:03:39.582Z,48.00
2023-03-02T08:08:42.411Z,51.00
2023-03-02T08:13:45.345Z,48.00
2023-03-02T08:18:49.572Z,44.25
2023-03-02T08:23:52.612Z,44.50
2023-03-02T08:28:55.635Z,42.25
2023-03-02T08:34:00.698Z,40.50
2023-03-02T08:39:03.580Z,35.25
2023-03-02T08:44:07.492Z,38.75
2023-03-02T08:49:11.689Z,32.50
2023-03-02T08:54:14.432Z,31.50
2023-03-02T08:59:17.342Z,33.25
2023-03-02T09:04:21.529Z,32.25
2023-03-02T09:09:24.474Z,34.50
2023-03-02T09:14:27.400Z,30.75
2023-03-02T09:19:31.519Z,32.00
2023-03-02T09:24:34.398Z,26.80
2023-03-02T09:29:37.159Z,30.25
2023-03-02T09:34:41.357Z,27.80
2023-03-02T09:39:44.224Z,30.25
2023-03-02T09:45:01.216Z,28.60
2023-03-02T09:50:13.050Z,29.00
2023-03-02T09:55:17.252Z,30.75
2023-03-02T10:00:23.072Z,30.75
2023-03-02T10:05:29.648Z,27.50
2023-03-02T10:10:36.904Z,31.75
2023-03-02T10:15:41.516Z,28.00
2023-03-02T10:20:47.703Z,26.25
2023-03-02T10:25:53.151Z,27.75
2023-03-02T10:30:57.965Z,28.50
2023-03-02T10:36:02.300Z,25.80
2023-03-02T10:41:07.040Z,25.80
2023-03-02T10:46:10.820Z,26.40
2023-03-02T10:51:24.600Z,24.40
2023-03-02T10:56:27.554Z,24.60
2023-03-02T11:01:31.031Z,25.20
2023-03-02T11:06:35.988Z,24.80
2023-03-02T11:11:38.864Z,26.40
2023-03-02T11:16:41.756Z,21.80
2023-03-02T11:21:47.818Z,25.60
2023-03-02T11:26:51.912Z,21.00
2023-03-02T11:31:56.728Z,24.60
2023-03-02T11:37:07.160Z,31.25
2023-03-02T11:42:16.338Z,29.75
2023-03-02T11:47:19.399Z,22.60
2023-03-02T11:52:24.834Z,34.25
2023-03-02T11:57:30.629Z,42.33
2023-03-02T12:02:33.647Z,44.33
2023-03-02T12:07:37.859Z,45.00
2023-03-02T12:12:42.444Z,45.33
2023-03-02T12:17:45.330Z,43.00
2023-03-02T12:22:49.465Z,39.00
2023-03-02T12:27:54.193Z,39.50
2023-03-02T12:33:04.002Z,35.75
2023-03-02T12:38:15.612Z,35.75
2023-03-02T12:43:28.960Z,35.75
2023-03-02T12:48:32.937Z,31.25
2023-03-02T12:53:39.702Z,27.40
2023-03-02T12:58:42.787Z,29.50
2023-03-02T13:03:46.881Z,28.75
2023-03-02T13:08:52.367Z,28.00
2023-03-02T13:13:55.898Z,26.00
2023-03-02T13:18:59.486Z,130.75
2023-03-02T13:24:03.784Z,163.67
2023-03-02T13:29:07.644Z,177.25
2023-03-02T13:34:21.028Z,208.75
2023-03-02T13:39:27.363Z,212.25
2023-03-02T13:44:31.213Z,263.50
2023-03-02T13:49:35.453Z,268.50
2023-03-02T13:54:41.312Z,369.40
2023-03-02T13:59:44.199Z,315.33
2023-03-02T14:04:47.455Z,331.67
2023-03-02T14:09:51.849Z,291.00
2023-03-02T14:14:54.695Z,133.00
2023-03-02T14:19:57.779Z,59.00
2023-03-02T14:25:02.230Z,40.50
2023-03-02T14:30:08.561Z,38.75
2023-03-02T14:35:12.507Z,32.50
2023-03-02T14:40:22.818Z,27.75
2023-03-02T14:45:25.926Z,28.50
2023-03-02T14:50:28.830Z,31.75
2023-03-02T14:55:33.078Z,25.20
2023-03-02T15:00:36.262Z,29.20
2023-03-02T15:05:40.736Z,26.20
2023-03-02T15:10:47.051Z,26.80
2023-03-02T15:15:50.065Z,34.50
2023-03-02T15:20:53.081Z,29.50
2023-03-02T15:26:00.842Z,25.40
2023-03-02T15:31:08.002Z,27.00
2023-03-02T15:36:10.909Z,24.40
2023-03-02T15:41:15.822Z,25.60
2023-03-02T15:46:18.883Z,26.80
2023-03-02T15:51:21.927Z,24.20
2023-03-02T15:56:30.404Z,20.60
2023-03-02T16:01:35.928Z,24.60
2023-03-02T16:06:39.178Z,19.60
2023-03-02T16:11:43.482Z,21.80
2023-03-02T16:16:46.607Z,18.00
2023-03-02T16:21:49.655Z,18.00
2023-03-02T16:26:53.903Z,18.00
2023-03-02T16:31:56.764Z,296.50
2023-03-02T16:36:59.594Z,311.00
2023-03-02T16:42:03.885Z,375.00
2023-03-02T16:47:06.774Z,435.25
2023-03-02T16:52:09.757Z,447.25
2023-03-02T16:57:13.985Z,467.00
2023-03-02T17:02:16.748Z,361.00
2023-03-02T17:07:19.934Z,401.20
2023-03-02T17:12:24.624Z,372.00
2023-03-02T17:17:27.368Z,337.67
2023-03-02T17:22:30.175Z,311.00
2023-03-02T17:27:34.392Z,282.50
2023-03-02T17:32:37.214Z,269.00
2023-03-02T17:37:40.111Z,240.75
2023-03-02T17:42:44.247Z,239.75
2023-03-02T17:47:47.077Z,231.75
2023-03-02T17:52:49.889Z,211.50
2023-03-02T17:57:54.017Z,221.25
2023-03-02T18:02:56.792Z,223.75
2023-03-02T18:07:59.665Z,220.75
2023-03-02T18:13:03.877Z,209.75
2023-03-02T18:18:06.862Z,210.50
2023-03-02T18:23:09.596Z,210.50
2023-03-02T18:28:13.797Z,199.50
2023-03-02T18:33:16.556Z,201.00
2023-03-02T18:38:19.393Z,198.67
2023-03-02T18:43:23.555Z,193.75
2023-03-02T18:48:26.351Z,184.25
2023-03-02T18:53:29.111Z,183.00
2023-03-02T18:58:34.358Z,173.33
2023-03-02T19:03:38.591Z,179.33
2023-03-02T19:08:41.604Z,170.67
2023-03-02T19:13:45.774Z,164.67
2023-03-02T19:18:48.650Z,174.67
2023-03-02T19:23:51.758Z,172.00
2023-03-02T19:28:55.997Z,159.33
2023-03-02T19:33:58.938Z,158.67
2023-03-02T19:39:01.737Z,157.67
2023-03-02T19:44:07.105Z,158.67
2023-03-02T19:49:09.866Z,157.67
2023-03-02T19:54:12.629Z,156.25
2023-03-02T19:59:16.739Z,153.25
2023-03-02T20:04:19.585Z,153.00
2023-03-02T20:09:24.100Z,148.50
2023-03-02T20:14:33.725Z,146.00
2023-03-02T20:19:37.340Z,143.25
2023-03-02T20:24:40.611Z,140.25
2023-03-02T20:29:47.390Z,139.00
2023-03-02T20:34:51.312Z,133.75
2023-03-02T20:39:54.393Z,137.25
2023-03-02T20:44:59.431Z,133.00
2023-03-02T20:50:02.765Z,135.25
2023-03-02T20:55:06.492Z,133.00
2023-03-02T21:00:15.454Z,126.50
2023-03-02T21:05:18.990Z,128.25
2023-03-02T21:10:24.040Z,124.75
2023-03-02T21:15:28.814Z,119.25
2023-03-02T21:20:33.107Z,116.00
2023-03-02T21:25:36.233Z,117.00
2023-03-02T21:30:43.477Z,112.50
2023-03-02T21:35:46.939Z,108.25
2023-03-02T21:40:49.813Z,103.25
2023-03-02T21:45:53.891Z,101.00
2023-03-02T21:50:56.708Z,100.75
2023-03-02T21:56:01.781Z,101.50
2023-03-02T22:01:06.257Z,97.50
2023-03-02T22:06:09.129Z,96.00
2023-03-02T22:11:13.457Z,93.75
2023-03-02T22:16:18.668Z,98.00
2023-03-02T22:21:27.993Z,90.75
2023-03-02T22:26:30.784Z,93.00
2023-03-02T22:31:35.014Z,91.50
2023-03-02T22:36:37.799Z,89.25
2023-03-02T22:41:40.586Z,89.75
2023-03-02T22:46:45.238Z,84.25
2023-03-02T22:51:48.109Z,87.00
2023-03-02T22:56:51.667Z,90.00
2023-03-02T23:01:58.452Z,84.25
2023-03-02T23:07:02.560Z,79.25
2023-03-02T23:12:10.754Z,82.00
2023-03-02T23:17:16.886Z,82.75
2023-03-02T23:22:19.780Z,76.00
2023-03-02T23:27:24.216Z,79.25
2023-03-02T23:32:28.489Z,83.25
2023-03-02T23:37:31.335Z,75.50
2023-03-02T23:42:34.161Z,77.00
2023-03-02T23:47:38.293Z,75.50
2023-03-02T23:52:41.203Z,79.75
2023-03-02T23:57:43.919Z,72.25
